sensor_id;sensor_type;location;lat;lon;timestamp;temperature;humidity
14489;DHT22;7330;50.804;4.550;2023-02-26T00:05:53;3.60;95.80
14489;DHT22;7330;50.804;4.550;2023-02-26T00:08:20;3.60;95.90
14489;DHT22;7330;50.804;4.550;2023-02-26T00:10:46;3.60;95.90
14489;DHT22;7330;50.804;4.550;2023-02-26T00:13:13;3.50;95.90
14489;DHT22;7330;50.804;4.550;2023-02-26T00:15:41;3.50;95.90
14489;DHT22;7330;50.804;4.550;2023-02-26T00:18:08;3.50;96.00
14489;DHT22;7330;50.804;4.550;2023-02-26T00:20:38;3.50;96.00
14489;DHT22;7330;50.804;4.550;2023-02-26T00:23:07;3.50;96.10
14489;DHT22;7330;50.804;4.550;2023-02-26T00:25:38;3.50;96.00
14489;DHT22;7330;50.804;4.550;2023-02-26T00:28:05;3.50;96.10
14489;DHT22;7330;50.804;4.550;2023-02-26T00:32:59;3.50;96.20
14489;DHT22;7330;50.804;4.550;2023-02-26T00:35:26;3.50;96.30
14489;DHT22;7330;50.804;4.550;2023-02-26T00:37:55;3.40;96.20
14489;DHT22;7330;50.804;4.550;2023-02-26T00:40:27;3.40;96.30
14489;DHT22;7330;50.804;4.550;2023-02-26T00:42:55;3.40;96.30
14489;DHT22;7330;50.804;4.550;2023-02-26T00:45:22;3.40;96.50
14489;DHT22;7330;50.804;4.550;2023-02-26T00:47:50;3.40;96.50
14489;DHT22;7330;50.804;4.550;2023-02-26T00:50:19;3.30;96.60
14489;DHT22;7330;50.804;4.550;2023-02-26T00:57:41;3.30;96.80
14489;DHT22;7330;50.804;4.550;2023-02-26T01:00:09;3.30;97.00
14489;DHT22;7330;50.804;4.550;2023-02-26T01:02:36;3.20;97.00
14489;DHT22;7330;50.804;4.550;2023-02-26T01:05:04;3.30;97.10
14489;DHT22;7330;50.804;4.550;2023-02-26T01:07:32;3.30;97.20
14489;DHT22;7330;50.804;4.550;2023-02-26T01:12:31;3.20;97.30
14489;DHT22;7330;50.804;4.550;2023-02-26T01:17:46;3.20;97.40
14489;DHT22;7330;50.804;4.550;2023-02-26T01:22:41;3.20;97.80
14489;DHT22;7330;50.804;4.550;2023-02-26T01:25:10;3.20;97.80
14489;DHT22;7330;50.804;4.550;2023-02-26T01:27:37;3.20;97.80
14489;DHT22;7330;50.804;4.550;2023-02-26T01:35:01;3.20;97.80
14489;DHT22;7330;50.804;4.550;2023-02-26T01:37:32;3.20;97.90
14489;DHT22;7330;50.804;4.550;2023-02-26T01:40:12;3.20;98.10
14489;DHT22;7330;50.804;4.550;2023-02-26T01:42:45;3.20;98.00
14489;DHT22;7330;50.804;4.550;2023-02-26T01:45:16;3.20;98.10
14489;DHT22;7330;50.804;4.550;2023-02-26T01:50:15;3.10;98.40
14489;DHT22;7330;50.804;4.550;2023-02-26T01:55:09;3.20;98.60
14489;DHT22;7330;50.804;4.550;2023-02-26T01:57:36;3.10;98.50
14489;DHT22;7330;50.804;4.550;2023-02-26T02:02:30;3.10;98.60
14489;DHT22;7330;50.804;4.550;2023-02-26T02:04:57;3.10;98.60
14489;DHT22;7330;50.804;4.550;2023-02-26T02:12:25;3.10;98.80
14489;DHT22;7330;50.804;4.550;2023-02-26T02:14:55;3.10;98.80
14489;DHT22;7330;50.804;4.550;2023-02-26T02:17:28;3.10;98.80
14489;DHT22;7330;50.804;4.550;2023-02-26T02:20:02;3.10;99.00
14489;DHT22;7330;50.804;4.550;2023-02-26T02:25:28;3.00;99.00
14489;DHT22;7330;50.804;4.550;2023-02-26T02:28:01;3.00;99.10
14489;DHT22;7330;50.804;4.550;2023-02-26T02:33:00;3.00;99.10
14489;DHT22;7330;50.804;4.550;2023-02-26T02:35:30;3.00;99.30
14489;DHT22;7330;50.804;4.550;2023-02-26T02:37:59;3.00;99.20
14489;DHT22;7330;50.804;4.550;2023-02-26T02:40:28;3.00;99.30
14489;DHT22;7330;50.804;4.550;2023-02-26T02:47:51;3.00;99.40
14489;DHT22;7330;50.804;4.550;2023-02-26T02:50:21;3.00;99.40
14489;DHT22;7330;50.804;4.550;2023-02-26T02:52:51;3.00;99.50
14489;DHT22;7330;50.804;4.550;2023-02-26T02:55:20;3.00;99.40
14489;DHT22;7330;50.804;4.550;2023-02-26T02:57:47;3.00;99.60
14489;DHT22;7330;50.804;4.550;2023-02-26T03:00:15;3.00;99.60
14489;DHT22;7330;50.804;4.550;2023-02-26T03:02:45;3.00;99.70
14489;DHT22;7330;50.804;4.550;2023-02-26T03:05:14;3.00;99.70
14489;DHT22;7330;50.804;4.550;2023-02-26T03:07:50;3.00;99.70
14489;DHT22;7330;50.804;4.550;2023-02-26T03:12:45;2.90;99.70
14489;DHT22;7330;50.804;4.550;2023-02-26T03:15:12;2.90;99.80
14489;DHT22;7330;50.804;4.550;2023-02-26T03:17:42;2.90;99.80
14489;DHT22;7330;50.804;4.550;2023-02-26T03:22:40;2.90;99.90
14489;DHT22;7330;50.804;4.550;2023-02-26T03:25:10;2.80;99.90
14489;DHT22;7330;50.804;4.550;2023-02-26T03:27:40;2.90;99.90
14489;DHT22;7330;50.804;4.550;2023-02-26T03:30:10;2.90;99.90
14489;DHT22;7330;50.804;4.550;2023-02-26T03:35:08;2.80;99.90
14489;DHT22;7330;50.804;4.550;2023-02-26T03:37:37;2.80;99.90
14489;DHT22;7330;50.804;4.550;2023-02-26T03:40:06;2.80;99.90
14489;DHT22;7330;50.804;4.550;2023-02-26T03:42:35;2.90;99.90
14489;DHT22;7330;50.804;4.550;2023-02-26T03:45:03;2.80;99.90
14489;DHT22;7330;50.804;4.550;2023-02-26T03:49:59;2.80;99.90
14489;DHT22;7330;50.804;4.550;2023-02-26T03:52:28;2.80;99.90
14489;DHT22;7330;50.804;4.550;2023-02-26T03:54:57;2.80;99.90
14489;DHT22;7330;50.804;4.550;2023-02-26T03:57:25;2.80;99.90
14489;DHT22;7330;50.804;4.550;2023-02-26T04:02:21;2.70;99.90
14489;DHT22;7330;50.804;4.550;2023-02-26T04:04:58;2.70;99.90
14489;DHT22;7330;50.804;4.550;2023-02-26T04:07:26;2.60;99.90
14489;DHT22;7330;50.804;4.550;2023-02-26T04:09:53;2.60;99.90
14489;DHT22;7330;50.804;4.550;2023-02-26T04:12:20;2.60;99.90
14489;DHT22;7330;50.804;4.550;2023-02-26T04:14:47;2.60;99.90
14489;DHT22;7330;50.804;4.550;2023-02-26T04:17:14;2.50;99.90
14489;DHT22;7330;50.804;4.550;2023-02-26T04:24:36;2.50;99.90
14489;DHT22;7330;50.804;4.550;2023-02-26T04:27:03;2.50;99.90
14489;DHT22;7330;50.804;4.550;2023-02-26T04:29:30;2.50;99.90
14489;DHT22;7330;50.804;4.550;2023-02-26T04:31:57;2.50;99.90
14489;DHT22;7330;50.804;4.550;2023-02-26T04:36:52;2.40;99.90
14489;DHT22;7330;50.804;4.550;2023-02-26T04:39:18;2.40;99.90
14489;DHT22;7330;50.804;4.550;2023-02-26T04:41:47;2.40;99.90
14489;DHT22;7330;50.804;4.550;2023-02-26T04:46:42;2.40;99.90
14489;DHT22;7330;50.804;4.550;2023-02-26T04:49:08;2.40;99.90
14489;DHT22;7330;50.804;4.550;2023-02-26T04:51:35;2.40;99.90
14489;DHT22;7330;50.804;4.550;2023-02-26T04:54:02;2.40;99.90
14489;DHT22;7330;50.804;4.550;2023-02-26T04:56:29;2.40;99.90
14489;DHT22;7330;50.804;4.550;2023-02-26T05:01:25;2.40;99.90
14489;DHT22;7330;50.804;4.550;2023-02-26T05:03:52;2.40;99.90
14489;DHT22;7330;50.804;4.550;2023-02-26T05:06:18;2.40;99.90
14489;DHT22;7330;50.804;4.550;2023-02-26T05:08:45;2.30;99.90
14489;DHT22;7330;50.804;4.550;2023-02-26T05:11:12;2.30;99.90
14489;DHT22;7330;50.804;4.550;2023-02-26T05:16:06;2.30;99.90
14489;DHT22;7330;50.804;4.550;2023-02-26T05:18:34;2.30;99.90
14489;DHT22;7330;50.804;4.550;2023-02-26T05:21:01;2.20;99.90
14489;DHT22;7330;50.804;4.550;2023-02-26T05:23:28;2.20;99.90
14489;DHT22;7330;50.804;4.550;2023-02-26T05:25:55;2.20;99.90
14489;DHT22;7330;50.804;4.550;2023-02-26T05:28:22;2.10;99.90
14489;DHT22;7330;50.804;4.550;2023-02-26T05:30:49;2.20;99.90
14489;DHT22;7330;50.804;4.550;2023-02-26T05:35:44;2.10;99.90
14489;DHT22;7330;50.804;4.550;2023-02-26T05:38:12;2.10;99.90
14489;DHT22;7330;50.804;4.550;2023-02-26T05:40:39;2.10;99.80
14489;DHT22;7330;50.804;4.550;2023-02-26T05:43:05;2.10;99.80
14489;DHT22;7330;50.804;4.550;2023-02-26T05:45:33;2.10;99.80
14489;DHT22;7330;50.804;4.550;2023-02-26T05:47:59;2.00;99.80
14489;DHT22;7330;50.804;4.550;2023-02-26T05:50:26;2.10;99.80
14489;DHT22;7330;50.804;4.550;2023-02-26T05:52:56;2.00;99.70
14489;DHT22;7330;50.804;4.550;2023-02-26T05:57:50;2.00;99.70
14489;DHT22;7330;50.804;4.550;2023-02-26T06:00:17;1.90;99.70
14489;DHT22;7330;50.804;4.550;2023-02-26T06:02:43;1.90;99.70
14489;DHT22;7330;50.804;4.550;2023-02-26T06:07:37;1.90;99.70
14489;DHT22;7330;50.804;4.550;2023-02-26T06:12:34;1.90;99.60
14489;DHT22;7330;50.804;4.550;2023-02-26T06:15:02;1.90;99.70
14489;DHT22;7330;50.804;4.550;2023-02-26T06:20:02;1.80;99.60
14489;DHT22;7330;50.804;4.550;2023-02-26T06:22:29;1.80;99.60
14489;DHT22;7330;50.804;4.550;2023-02-26T06:24:55;1.80;99.60
14489;DHT22;7330;50.804;4.550;2023-02-26T06:27:22;1.70;99.60
14489;DHT22;7330;50.804;4.550;2023-02-26T06:29:50;1.80;99.60
14489;DHT22;7330;50.804;4.550;2023-02-26T06:32:17;1.80;99.60
14489;DHT22;7330;50.804;4.550;2023-02-26T06:37:11;1.80;99.60
14489;DHT22;7330;50.804;4.550;2023-02-26T06:44:32;1.80;99.70
14489;DHT22;7330;50.804;4.550;2023-02-26T06:47:00;1.80;99.70
14489;DHT22;7330;50.804;4.550;2023-02-26T06:49:27;1.80;99.80
14489;DHT22;7330;50.804;4.550;2023-02-26T06:54:21;1.80;99.80
14489;DHT22;7330;50.804;4.550;2023-02-26T06:59:20;1.80;99.80
14489;DHT22;7330;50.804;4.550;2023-02-26T07:01:47;1.80;99.80
14489;DHT22;7330;50.804;4.550;2023-02-26T07:04:15;1.80;99.80
14489;DHT22;7330;50.804;4.550;2023-02-26T07:06:42;1.80;99.80
14489;DHT22;7330;50.804;4.550;2023-02-26T07:09:09;1.90;99.90
14489;DHT22;7330;50.804;4.550;2023-02-26T07:11:35;1.90;99.90
14489;DHT22;7330;50.804;4.550;2023-02-26T07:14:02;2.00;99.90
14489;DHT22;7330;50.804;4.550;2023-02-26T07:16:29;2.10;99.90
14489;DHT22;7330;50.804;4.550;2023-02-26T07:18:56;2.20;99.90
14489;DHT22;7330;50.804;4.550;2023-02-26T07:21:24;2.30;99.90
14489;DHT22;7330;50.804;4.550;2023-02-26T07:23:51;2.40;99.90
14489;DHT22;7330;50.804;4.550;2023-02-26T07:26:18;2.50;99.90
14489;DHT22;7330;50.804;4.550;2023-02-26T07:28:44;2.60;99.90
14489;DHT22;7330;50.804;4.550;2023-02-26T07:31:11;2.80;99.30
14489;DHT22;7330;50.804;4.550;2023-02-26T07:33:38;2.90;99.30
14489;DHT22;7330;50.804;4.550;2023-02-26T07:36:05;3.00;98.60
14489;DHT22;7330;50.804;4.550;2023-02-26T07:38:33;3.10;98.60
14489;DHT22;7330;50.804;4.550;2023-02-26T07:41:00;3.30;98.10
14489;DHT22;7330;50.804;4.550;2023-02-26T07:43:27;3.40;98.20
14489;DHT22;7330;50.804;4.550;2023-02-26T07:45:53;3.60;98.00
14489;DHT22;7330;50.804;4.550;2023-02-26T07:48:20;3.70;97.80
14489;DHT22;7330;50.804;4.550;2023-02-26T07:50:49;3.80;97.40
14489;DHT22;7330;50.804;4.550;2023-02-26T07:53:16;3.90;97.30
14489;DHT22;7330;50.804;4.550;2023-02-26T07:55:44;4.00;96.90
14489;DHT22;7330;50.804;4.550;2023-02-26T07:58:11;4.10;96.80
14489;DHT22;7330;50.804;4.550;2023-02-26T08:00:38;4.10;96.60
14489;DHT22;7330;50.804;4.550;2023-02-26T08:03:05;4.20;96.30
14489;DHT22;7330;50.804;4.550;2023-02-26T08:05:32;4.20;96.30
14489;DHT22;7330;50.804;4.550;2023-02-26T08:07:59;4.30;96.20
14489;DHT22;7330;50.804;4.550;2023-02-26T08:10:29;4.30;96.10
14489;DHT22;7330;50.804;4.550;2023-02-26T08:15:24;4.40;95.80
14489;DHT22;7330;50.804;4.550;2023-02-26T08:17:51;4.50;95.90
14489;DHT22;7330;50.804;4.550;2023-02-26T08:20:18;4.60;95.90
14489;DHT22;7330;50.804;4.550;2023-02-26T08:25:11;4.60;95.20
14489;DHT22;7330;50.804;4.550;2023-02-26T08:27:38;4.70;95.10
14489;DHT22;7330;50.804;4.550;2023-02-26T08:30:06;4.70;94.80
14489;DHT22;7330;50.804;4.550;2023-02-26T08:32:34;4.80;94.70
14489;DHT22;7330;50.804;4.550;2023-02-26T08:39:55;5.10;95.10
14489;DHT22;7330;50.804;4.550;2023-02-26T08:42:21;5.30;94.80
14489;DHT22;7330;50.804;4.550;2023-02-26T08:44:48;5.40;94.40
14489;DHT22;7330;50.804;4.550;2023-02-26T08:47:15;5.60;94.10
14489;DHT22;7330;50.804;4.550;2023-02-26T08:49:43;5.80;94.30
14489;DHT22;7330;50.804;4.550;2023-02-26T08:54:37;6.10;93.40
14489;DHT22;7330;50.804;4.550;2023-02-26T08:59:31;6.30;92.40
14489;DHT22;7330;50.804;4.550;2023-02-26T09:01:58;6.40;92.50
14489;DHT22;7330;50.804;4.550;2023-02-26T09:04:25;6.60;92.60
14489;DHT22;7330;50.804;4.550;2023-02-26T09:09:21;6.70;91.20
14489;DHT22;7330;50.804;4.550;2023-02-26T09:11:48;6.80;91.70
14489;DHT22;7330;50.804;4.550;2023-02-26T09:14:14;7.00;91.40
14489;DHT22;7330;50.804;4.550;2023-02-26T09:16:41;7.00;90.50
14489;DHT22;7330;50.804;4.550;2023-02-26T09:24:02;7.10;90.20
14489;DHT22;7330;50.804;4.550;2023-02-26T09:26:31;7.00;89.50
14489;DHT22;7330;50.804;4.550;2023-02-26T09:28:57;7.00;88.80
14489;DHT22;7330;50.804;4.550;2023-02-26T09:31:24;6.90;88.80
14489;DHT22;7330;50.804;4.550;2023-02-26T09:33:52;6.80;89.30
14489;DHT22;7330;50.804;4.550;2023-02-26T09:36:19;6.90;89.70
14489;DHT22;7330;50.804;4.550;2023-02-26T09:38:45;6.80;90.10
14489;DHT22;7330;50.804;4.550;2023-02-26T09:43:46;6.80;90.00
14489;DHT22;7330;50.804;4.550;2023-02-26T09:46:18;6.80;89.20
14489;DHT22;7330;50.804;4.550;2023-02-26T09:48:47;6.80;90.00
14489;DHT22;7330;50.804;4.550;2023-02-26T09:51:16;6.90;90.00
14489;DHT22;7330;50.804;4.550;2023-02-26T09:56:12;7.00;89.10
14489;DHT22;7330;50.804;4.550;2023-02-26T10:01:10;7.10;86.60
14489;DHT22;7330;50.804;4.550;2023-02-26T10:03:41;7.10;85.40
14489;DHT22;7330;50.804;4.550;2023-02-26T10:06:14;7.10;84.80
14489;DHT22;7330;50.804;4.550;2023-02-26T10:11:12;7.10;83.90
14489;DHT22;7330;50.804;4.550;2023-02-26T10:13:41;7.10;83.80
14489;DHT22;7330;50.804;4.550;2023-02-26T10:16:12;7.30;84.20
14489;DHT22;7330;50.804;4.550;2023-02-26T10:18:41;7.30;83.20
14489;DHT22;7330;50.804;4.550;2023-02-26T10:23:37;7.20;79.90
14489;DHT22;7330;50.804;4.550;2023-02-26T10:31:00;7.30;78.60
14489;DHT22;7330;50.804;4.550;2023-02-26T10:33:32;7.10;76.40
14489;DHT22;7330;50.804;4.550;2023-02-26T10:38:28;6.90;75.30
14489;DHT22;7330;50.804;4.550;2023-02-26T10:40:57;6.80;76.10
14489;DHT22;7330;50.804;4.550;2023-02-26T10:43:27;6.80;76.10
14489;DHT22;7330;50.804;4.550;2023-02-26T10:45:57;6.70;76.00
14489;DHT22;7330;50.804;4.550;2023-02-26T10:50:55;6.70;77.50
14489;DHT22;7330;50.804;4.550;2023-02-26T10:53:23;6.60;76.70
14489;DHT22;7330;50.804;4.550;2023-02-26T10:55:51;6.70;78.40
14489;DHT22;7330;50.804;4.550;2023-02-26T11:00:47;6.70;77.10
14489;DHT22;7330;50.804;4.550;2023-02-26T11:03:15;6.70;77.40
14489;DHT22;7330;50.804;4.550;2023-02-26T11:05:43;6.80;77.10
14489;DHT22;7330;50.804;4.550;2023-02-26T11:08:12;6.80;76.90
14489;DHT22;7330;50.804;4.550;2023-02-26T11:10:46;7.00;77.70
14489;DHT22;7330;50.804;4.550;2023-02-26T11:13:13;7.00;78.10
14489;DHT22;7330;50.804;4.550;2023-02-26T11:15:40;7.10;77.10
14489;DHT22;7330;50.804;4.550;2023-02-26T11:18:10;7.10;76.40
14489;DHT22;7330;50.804;4.550;2023-02-26T11:20:39;7.10;75.40
14489;DHT22;7330;50.804;4.550;2023-02-26T11:23:10;7.00;72.90
14489;DHT22;7330;50.804;4.550;2023-02-26T11:30:35;7.00;75.50
14489;DHT22;7330;50.804;4.550;2023-02-26T11:33:03;7.00;76.20
14489;DHT22;7330;50.804;4.550;2023-02-26T11:35:32;7.00;76.30
14489;DHT22;7330;50.804;4.550;2023-02-26T11:37:59;7.00;75.80
14489;DHT22;7330;50.804;4.550;2023-02-26T11:40:31;7.00;75.70
14489;DHT22;7330;50.804;4.550;2023-02-26T11:42:59;7.00;76.20
14489;DHT22;7330;50.804;4.550;2023-02-26T11:45:29;6.90;75.80
14489;DHT22;7330;50.804;4.550;2023-02-26T11:47:58;6.90;75.80
14489;DHT22;7330;50.804;4.550;2023-02-26T11:50:27;6.90;75.50
14489;DHT22;7330;50.804;4.550;2023-02-26T11:52:55;6.90;75.40
14489;DHT22;7330;50.804;4.550;2023-02-26T11:55:27;6.90;74.50
14489;DHT22;7330;50.804;4.550;2023-02-26T11:57:54;6.80;74.40
14489;DHT22;7330;50.804;4.550;2023-02-26T12:00:23;6.80;75.40
14489;DHT22;7330;50.804;4.550;2023-02-26T12:02:50;6.70;74.30
14489;DHT22;7330;50.804;4.550;2023-02-26T12:07:45;6.70;75.00
14489;DHT22;7330;50.804;4.550;2023-02-26T12:12:43;6.60;74.20
14489;DHT22;7330;50.804;4.550;2023-02-26T12:20:15;6.60;75.90
14489;DHT22;7330;50.804;4.550;2023-02-26T12:22:48;6.60;73.40
14489;DHT22;7330;50.804;4.550;2023-02-26T12:28:21;6.50;73.50
14489;DHT22;7330;50.804;4.550;2023-02-26T12:30:57;6.40;73.20
14489;DHT22;7330;50.804;4.550;2023-02-26T12:33:34;6.50;73.20
14489;DHT22;7330;50.804;4.550;2023-02-26T12:38:36;6.40;74.10
14489;DHT22;7330;50.804;4.550;2023-02-26T12:43:51;6.40;73.20
14489;DHT22;7330;50.804;4.550;2023-02-26T12:46:21;6.30;73.40
14489;DHT22;7330;50.804;4.550;2023-02-26T12:48:57;6.20;72.80
14489;DHT22;7330;50.804;4.550;2023-02-26T12:51:32;6.30;74.50
14489;DHT22;7330;50.804;4.550;2023-02-26T12:54:08;6.30;73.40
14489;DHT22;7330;50.804;4.550;2023-02-26T12:56:45;6.30;74.20
14489;DHT22;7330;50.804;4.550;2023-02-26T13:01:45;6.30;71.60
14489;DHT22;7330;50.804;4.550;2023-02-26T13:09:47;6.50;73.80
14489;DHT22;7330;50.804;4.550;2023-02-26T13:12:21;6.60;75.10
14489;DHT22;7330;50.804;4.550;2023-02-26T13:14:52;6.70;74.70
14489;DHT22;7330;50.804;4.550;2023-02-26T13:17:23;6.80;74.10
14489;DHT22;7330;50.804;4.550;2023-02-26T13:19:53;6.70;69.10
14489;DHT22;7330;50.804;4.550;2023-02-26T13:22:21;6.70;69.80
14489;DHT22;7330;50.804;4.550;2023-02-26T13:24:53;6.70;69.80
14489;DHT22;7330;50.804;4.550;2023-02-26T13:27:23;6.70;69.10
14489;DHT22;7330;50.804;4.550;2023-02-26T13:29:52;6.70;69.50
14489;DHT22;7330;50.804;4.550;2023-02-26T13:34:49;6.60;66.00
14489;DHT22;7330;50.804;4.550;2023-02-26T13:37:20;6.60;66.00
14489;DHT22;7330;50.804;4.550;2023-02-26T13:39:50;6.60;66.00
14489;DHT22;7330;50.804;4.550;2023-02-26T13:42:25;6.60;65.70
14489;DHT22;7330;50.804;4.550;2023-02-26T13:44:56;6.60;66.00
14489;DHT22;7330;50.804;4.550;2023-02-26T13:47:29;6.70;67.10
14489;DHT22;7330;50.804;4.550;2023-02-26T13:50:03;6.70;68.60
14489;DHT22;7330;50.804;4.550;2023-02-26T13:52:31;6.70;69.30
14489;DHT22;7330;50.804;4.550;2023-02-26T13:54:58;6.70;71.00
14489;DHT22;7330;50.804;4.550;2023-02-26T13:57:34;6.70;70.90
14489;DHT22;7330;50.804;4.550;2023-02-26T14:00:05;6.70;69.80
14489;DHT22;7330;50.804;4.550;2023-02-26T14:02:44;6.70;69.30
14489;DHT22;7330;50.804;4.550;2023-02-26T14:07:45;6.60;68.90
14489;DHT22;7330;50.804;4.550;2023-02-26T14:10:14;6.60;70.20
14489;DHT22;7330;50.804;4.550;2023-02-26T14:12:42;6.60;68.70
14489;DHT22;7330;50.804;4.550;2023-02-26T14:15:26;6.50;66.70
14489;DHT22;7330;50.804;4.550;2023-02-26T14:17:59;6.50;67.30
14489;DHT22;7330;50.804;4.550;2023-02-26T14:20:26;6.50;68.60
14489;DHT22;7330;50.804;4.550;2023-02-26T14:22:58;6.50;68.40
14489;DHT22;7330;50.804;4.550;2023-02-26T14:25:37;6.60;67.60
14489;DHT22;7330;50.804;4.550;2023-02-26T14:30:33;6.60;66.60
14489;DHT22;7330;50.804;4.550;2023-02-26T14:35:30;6.60;67.70
14489;DHT22;7330;50.804;4.550;2023-02-26T14:37:58;6.60;69.20
14489;DHT22;7330;50.804;4.550;2023-02-26T14:40:28;6.60;68.40
14489;DHT22;7330;50.804;4.550;2023-02-26T14:42:56;6.50;67.50
14489;DHT22;7330;50.804;4.550;2023-02-26T14:45:28;6.50;66.50
14489;DHT22;7330;50.804;4.550;2023-02-26T14:47:56;6.40;64.70
14489;DHT22;7330;50.804;4.550;2023-02-26T14:50:28;6.40;64.90
14489;DHT22;7330;50.804;4.550;2023-02-26T14:53:04;6.30;65.20
14489;DHT22;7330;50.804;4.550;2023-02-26T14:55:43;6.30;65.90
14489;DHT22;7330;50.804;4.550;2023-02-26T15:03:33;6.40;66.50
14489;DHT22;7330;50.804;4.550;2023-02-26T15:06:07;6.40;66.00
14489;DHT22;7330;50.804;4.550;2023-02-26T15:08:58;6.30;65.10
14489;DHT22;7330;50.804;4.550;2023-02-26T15:14:03;6.30;64.90
14489;DHT22;7330;50.804;4.550;2023-02-26T15:19:08;6.30;64.90
14489;DHT22;7330;50.804;4.550;2023-02-26T15:21:39;6.30;64.50
14489;DHT22;7330;50.804;4.550;2023-02-26T15:24:10;6.30;65.30
14489;DHT22;7330;50.804;4.550;2023-02-26T15:26:39;6.30;65.70
14489;DHT22;7330;50.804;4.550;2023-02-26T15:29:09;6.30;65.10
14489;DHT22;7330;50.804;4.550;2023-02-26T15:36:33;6.30;66.00
14489;DHT22;7330;50.804;4.550;2023-02-26T15:41:28;6.20;65.60
14489;DHT22;7330;50.804;4.550;2023-02-26T15:43:56;6.20;65.40
14489;DHT22;7330;50.804;4.550;2023-02-26T15:46:26;6.30;65.70
14489;DHT22;7330;50.804;4.550;2023-02-26T15:48:53;6.20;65.80
14489;DHT22;7330;50.804;4.550;2023-02-26T15:51:21;6.20;65.90
14489;DHT22;7330;50.804;4.550;2023-02-26T15:53:50;6.30;66.60
14489;DHT22;7330;50.804;4.550;2023-02-26T15:56:19;6.20;66.40
14489;DHT22;7330;50.804;4.550;2023-02-26T15:58:47;6.20;66.20
14489;DHT22;7330;50.804;4.550;2023-02-26T16:01:16;6.30;66.80
14489;DHT22;7330;50.804;4.550;2023-02-26T16:03:44;6.20;67.20
14489;DHT22;7330;50.804;4.550;2023-02-26T16:08:38;6.20;67.50
14489;DHT22;7330;50.804;4.550;2023-02-26T16:13:34;6.20;67.90
14489;DHT22;7330;50.804;4.550;2023-02-26T16:16:03;6.20;69.00
14489;DHT22;7330;50.804;4.550;2023-02-26T16:18:32;6.20;68.70
14489;DHT22;7330;50.804;4.550;2023-02-26T16:21:00;6.20;68.50
14489;DHT22;7330;50.804;4.550;2023-02-26T16:23:30;6.20;69.00
14489;DHT22;7330;50.804;4.550;2023-02-26T16:30:56;6.10;68.70
14489;DHT22;7330;50.804;4.550;2023-02-26T16:33:24;6.10;68.70
14489;DHT22;7330;50.804;4.550;2023-02-26T16:35:52;6.10;68.70
14489;DHT22;7330;50.804;4.550;2023-02-26T16:38:20;6.10;69.20
14489;DHT22;7330;50.804;4.550;2023-02-26T16:40:47;6.10;69.20
14489;DHT22;7330;50.804;4.550;2023-02-26T16:43:34;6.10;69.90
14489;DHT22;7330;50.804;4.550;2023-02-26T16:46:07;6.10;70.00
14489;DHT22;7330;50.804;4.550;2023-02-26T16:48:37;6.00;70.20
14489;DHT22;7330;50.804;4.550;2023-02-26T16:51:07;6.10;70.10
14489;DHT22;7330;50.804;4.550;2023-02-26T16:53:36;6.00;70.30
14489;DHT22;7330;50.804;4.550;2023-02-26T16:56:08;6.00;70.30
14489;DHT22;7330;50.804;4.550;2023-02-26T16:58:41;6.00;70.70
14489;DHT22;7330;50.804;4.550;2023-02-26T17:01:11;6.00;71.10
14489;DHT22;7330;50.804;4.550;2023-02-26T17:03:39;6.00;71.20
14489;DHT22;7330;50.804;4.550;2023-02-26T17:06:09;5.80;71.50
14489;DHT22;7330;50.804;4.550;2023-02-26T17:08:40;5.90;71.50
14489;DHT22;7330;50.804;4.550;2023-02-26T17:13:35;5.90;72.10
14489;DHT22;7330;50.804;4.550;2023-02-26T17:16:03;5.80;72.00
14489;DHT22;7330;50.804;4.550;2023-02-26T17:20:59;5.80;72.60
14489;DHT22;7330;50.804;4.550;2023-02-26T17:25:55;5.80;73.00
14489;DHT22;7330;50.804;4.550;2023-02-26T17:28:27;5.70;72.90
14489;DHT22;7330;50.804;4.550;2023-02-26T17:30:59;5.70;73.20
14489;DHT22;7330;50.804;4.550;2023-02-26T17:33:26;5.60;73.40
14489;DHT22;7330;50.804;4.550;2023-02-26T17:38:21;5.60;73.60
14489;DHT22;7330;50.804;4.550;2023-02-26T17:40:50;5.60;73.70
14489;DHT22;7330;50.804;4.550;2023-02-26T17:43:20;5.60;74.10
14489;DHT22;7330;50.804;4.550;2023-02-26T17:45:47;5.60;74.10
14489;DHT22;7330;50.804;4.550;2023-02-26T17:48:14;5.60;74.30
14489;DHT22;7330;50.804;4.550;2023-02-26T17:50:41;5.50;74.70
14489;DHT22;7330;50.804;4.550;2023-02-26T17:53:11;5.50;74.80
14489;DHT22;7330;50.804;4.550;2023-02-26T17:55:39;5.50;74.80
14489;DHT22;7330;50.804;4.550;2023-02-26T17:58:09;5.50;74.80
14489;DHT22;7330;50.804;4.550;2023-02-26T18:03:07;5.40;74.70
14489;DHT22;7330;50.804;4.550;2023-02-26T18:05:34;5.40;74.70
14489;DHT22;7330;50.804;4.550;2023-02-26T18:08:03;5.40;74.70
14489;DHT22;7330;50.804;4.550;2023-02-26T18:10:31;5.40;75.30
14489;DHT22;7330;50.804;4.550;2023-02-26T18:15:26;5.30;75.70
14489;DHT22;7330;50.804;4.550;2023-02-26T18:17:53;5.30;75.90
14489;DHT22;7330;50.804;4.550;2023-02-26T18:20:20;5.30;76.00
14489;DHT22;7330;50.804;4.550;2023-02-26T18:22:47;5.30;76.40
14489;DHT22;7330;50.804;4.550;2023-02-26T18:25:15;5.30;76.60
14489;DHT22;7330;50.804;4.550;2023-02-26T18:27:42;5.20;76.70
14489;DHT22;7330;50.804;4.550;2023-02-26T18:30:13;5.20;76.90
14489;DHT22;7330;50.804;4.550;2023-02-26T18:32:41;5.10;77.10
14489;DHT22;7330;50.804;4.550;2023-02-26T18:35:08;5.10;77.30
14489;DHT22;7330;50.804;4.550;2023-02-26T18:37:35;5.00;77.40
14489;DHT22;7330;50.804;4.550;2023-02-26T18:40:02;5.00;77.90
14489;DHT22;7330;50.804;4.550;2023-02-26T18:42:29;5.00;78.00
14489;DHT22;7330;50.804;4.550;2023-02-26T18:44:57;5.00;78.30
14489;DHT22;7330;50.804;4.550;2023-02-26T18:47:23;4.90;78.20
14489;DHT22;7330;50.804;4.550;2023-02-26T18:49:52;4.90;78.50
14489;DHT22;7330;50.804;4.550;2023-02-26T18:52:18;4.80;78.60
14489;DHT22;7330;50.804;4.550;2023-02-26T18:54:45;4.80;78.90
14489;DHT22;7330;50.804;4.550;2023-02-26T18:57:12;4.70;78.80
14489;DHT22;7330;50.804;4.550;2023-02-26T18:59:39;4.70;79.10
14489;DHT22;7330;50.804;4.550;2023-02-26T19:02:09;4.70;79.20
14489;DHT22;7330;50.804;4.550;2023-02-26T19:04:36;4.70;79.40
14489;DHT22;7330;50.804;4.550;2023-02-26T19:07:04;4.60;79.60
14489;DHT22;7330;50.804;4.550;2023-02-26T19:09:31;4.60;79.60
14489;DHT22;7330;50.804;4.550;2023-02-26T19:14:26;4.60;79.90
14489;DHT22;7330;50.804;4.550;2023-02-26T19:16:53;4.60;79.90
14489;DHT22;7330;50.804;4.550;2023-02-26T19:19:20;4.50;79.80
14489;DHT22;7330;50.804;4.550;2023-02-26T19:21:47;4.50;80.30
14489;DHT22;7330;50.804;4.550;2023-02-26T19:24:16;4.50;80.80
14489;DHT22;7330;50.804;4.550;2023-02-26T19:26:42;4.50;80.90
14489;DHT22;7330;50.804;4.550;2023-02-26T19:29:10;4.40;80.90
14489;DHT22;7330;50.804;4.550;2023-02-26T19:31:38;4.50;81.00
14489;DHT22;7330;50.804;4.550;2023-02-26T19:36:32;4.40;81.70
14489;DHT22;7330;50.804;4.550;2023-02-26T19:38:59;4.40;81.90
14489;DHT22;7330;50.804;4.550;2023-02-26T19:41:28;4.40;81.90
14489;DHT22;7330;50.804;4.550;2023-02-26T19:48:49;4.30;82.70
14489;DHT22;7330;50.804;4.550;2023-02-26T19:53:43;4.20;83.10
14489;DHT22;7330;50.804;4.550;2023-02-26T19:56:09;4.20;83.30
14489;DHT22;7330;50.804;4.550;2023-02-26T19:58:38;4.20;83.20
14489;DHT22;7330;50.804;4.550;2023-02-26T20:03:31;4.10;83.60
14489;DHT22;7330;50.804;4.550;2023-02-26T20:05:59;4.10;83.90
14489;DHT22;7330;50.804;4.550;2023-02-26T20:10:54;4.00;84.00
14489;DHT22;7330;50.804;4.550;2023-02-26T20:13:21;4.00;84.20
14489;DHT22;7330;50.804;4.550;2023-02-26T20:15:49;4.00;84.20
14489;DHT22;7330;50.804;4.550;2023-02-26T20:18:17;3.90;84.10